Time;durP1;ratioP1;P1;durP2;ratioP2;P2;SDS_P1;SDS_P2;PMS_P1;PMS_P2;Temp;Humidity;BMP_temperature;BMP_pressure;BME280_temperature;BME280_humidity;BME280_pressure;Samples;Min_cycle;Max_cycle;Signal;HPM_P1;HPM_P2
2024/03/09 00:00:25;;;;;;;;;;;;;;;6.06;nan;101010.69;4154779;28;20301;-71
2024/03/09 00:02:28;;;;;;;;;;;;;;;6.05;nan;101003.63;4155104;28;19932;-71
2024/03/09 00:04:30;;;;;;;;;;;;;;;6.03;nan;101005.63;4136925;28;19933;-70
2024/03/09 00:06:35;;;;;;;;;;;;;;;6.01;nan;101008.44;4139235;28;19926;-70
2024/03/09 00:08:38;;;;;;;;;;;;;;;5.99;nan;101001.50;4138869;28;19926;-70
2024/03/09 00:10:39;;;;;;;;;;;;;;;5.98;nan;101002.53;4138665;28;20425;-71
2024/03/09 00:12:42;;;;;;;;;;;;;;;5.95;nan;100988.34;4135449;28;20002;-70
2024/03/09 00:14:45;;;;;;;;;;;;;;;5.92;nan;100993.16;4138804;28;19930;-70
2024/03/09 00:16:48;;;;;;;;;;;;;;;5.90;nan;100987.09;4138436;28;19925;-71
2024/03/09 00:18:52;;;;;;;;;;;;;;;5.87;nan;100988.22;4138298;28;19930;-70
2024/03/09 00:20:54;;;;;;;;;;;;;;;5.85;nan;100990.22;4137674;28;20391;-70
2024/03/09 00:22:57;;;;;;;;;;;;;;;5.84;nan;100982.31;4136896;28;19933;-70
2024/03/09 00:24:59;;;;;;;;;;;;;;;5.82;nan;100981.59;4138564;28;20410;-70
2024/03/09 00:27:02;;;;;;;;;;;;;;;5.80;nan;100981.75;4138491;28;20309;-70
2024/03/09 00:29:04;;;;;;;;;;;;;;;5.78;nan;100979.22;4137999;28;19926;-71
2024/03/09 00:31:06;;;;;;;;;;;;;;;5.77;nan;100976.66;4136588;28;19926;-71
2024/03/09 00:33:07;;;;;;;;;;;;;;;5.75;nan;100978.63;4137087;28;19929;-70
2024/03/09 00:35:11;;;;;;;;;;;;;;;5.72;nan;100979.75;4137983;28;20001;-70
2024/03/09 00:37:13;;;;;;;;;;;;;;;5.71;nan;100974.53;4137923;28;19929;-71
2024/03/09 00:39:16;;;;;;;;;;;;;;;5.70;nan;100971.00;4137281;28;19926;-71
2024/03/09 00:41:18;;;;;;;;;;;;;;;5.69;nan;100972.00;4137835;28;20303;-71
2024/03/09 00:43:20;;;;;;;;;;;;;;;5.69;nan;100968.44;4139209;28;19936;-71
2024/03/09 00:45:22;;;;;;;;;;;;;;;5.68;nan;100961.41;4141100;28;19929;-71
2024/03/09 00:47:25;;;;;;;;;;;;;;;5.68;nan;100966.78;4140069;28;19925;-70
2024/03/09 00:49:30;;;;;;;;;;;;;;;5.64;nan;100965.34;4139594;28;19945;-71
2024/03/09 00:51:33;;;;;;;;;;;;;;;5.61;nan;100955.75;4140026;28;19926;-70
2024/03/09 00:53:35;;;;;;;;;;;;;;;5.60;nan;100948.72;4140106;28;19929;-71
2024/03/09 00:55:37;;;;;;;;;;;;;;;5.59;nan;100942.53;4140924;28;20012;-71
2024/03/09 00:57:39;;;;;;;;;;;;;;;5.59;nan;100942.53;4139378;28;19926;-70
2024/03/09 00:59:41;;;;;;;;;;;;;;;5.57;nan;100941.78;4140385;28;19947;-71
2024/03/09 01:01:42;;;;;;;;;;;;;;;5.54;nan;100939.38;4139990;28;19949;-70
2024/03/09 01:03:45;;;;;;;;;;;;;;;5.52;nan;100930.66;4141838;28;20441;-71
2024/03/09 01:05:49;;;;;;;;;;;;;;;5.53;nan;100934.16;4157060;28;20306;-71
2024/03/09 01:07:53;;;;;;;;;;;;;;;5.53;nan;100931.50;4157117;28;19925;-71
2024/03/09 01:09:54;;;;;;;;;;;;;;;5.51;nan;100939.66;4157657;28;19925;-71
2024/03/09 01:11:56;;;;;;;;;;;;;;;5.51;nan;100930.78;4155986;28;19929;-71
2024/03/09 01:13:59;;;;;;;;;;;;;;;5.48;nan;100931.06;4156712;28;20311;-71
2024/03/09 01:16:01;;;;;;;;;;;;;;;5.48;nan;100928.41;4157583;28;19924;-71
2024/03/09 01:18:04;;;;;;;;;;;;;;;5.46;nan;100935.72;4155821;28;19926;-71
2024/03/09 01:20:06;;;;;;;;;;;;;;;5.45;nan;100926.00;4155400;28;19936;-71
2024/03/09 01:22:12;;;;;;;;;;;;;;;5.45;nan;100923.31;4156130;28;19929;-70
2024/03/09 01:24:15;;;;;;;;;;;;;;;5.44;nan;100927.84;4156268;28;19926;-70
2024/03/09 01:26:17;;;;;;;;;;;;;;;5.44;nan;100924.28;4156334;28;20387;-70
2024/03/09 01:28:21;;;;;;;;;;;;;;;5.44;nan;100921.59;4154882;28;19925;-71
2024/03/09 01:30:24;;;;;;;;;;;;;;;5.41;nan;100920.91;4157031;28;19935;-70
2024/03/09 01:32:25;;;;;;;;;;;;;;;5.39;nan;100914.84;4157080;28;19933;-70
2024/03/09 01:34:28;;;;;;;;;;;;;;;5.38;nan;100917.69;4156534;28;19932;-70
2024/03/09 01:36:30;;;;;;;;;;;;;;;5.36;nan;100915.13;4156202;28;20384;-70
2024/03/09 01:38:32;;;;;;;;;;;;;;;5.35;nan;100912.59;4155608;28;19929;-70
2024/03/09 01:40:35;;;;;;;;;;;;;;;5.33;nan;100911.88;4156984;28;19932;-70
2024/03/09 01:42:38;;;;;;;;;;;;;;;5.32;nan;100915.56;4156008;28;19925;-71
2024/03/09 01:44:40;;;;;;;;;;;;;;;5.32;nan;100904.84;4155786;28;19932;-70
2024/03/09 01:46:42;;;;;;;;;;;;;;;5.31;nan;100906.66;4156635;28;19929;-70
2024/03/09 01:48:45;;;;;;;;;;;;;;;5.33;nan;100906.50;4156202;28;20379;-70
2024/03/09 01:50:49;;;;;;;;;;;;;;;5.31;nan;100905.81;4154789;28;21665;-71
2024/03/09 01:52:51;;;;;;;;;;;;;;;5.31;nan;100908.50;4155060;28;20222;-70
2024/03/09 01:54:54;;;;;;;;;;;;;;;5.28;nan;100911.44;4156302;28;19927;-70
2024/03/09 01:56:57;;;;;;;;;;;;;;;5.27;nan;100909.78;4155900;28;20390;-70
2024/03/09 01:58:59;;;;;;;;;;;;;;;5.26;nan;100897.34;4154225;28;19948;-70
2024/03/09 02:01:06;;;;;;;;;;;;;;;5.25;nan;100904.56;4137436;28;19929;-70
2024/03/09 02:03:12;;;;;;;;;;;;;;;5.23;nan;100909.19;4123736;28;19938;-70
2024/03/09 02:05:16;;;;;;;;;;;;;;;5.22;nan;100894.13;4156420;28;19925;-70
2024/03/09 02:07:18;;;;;;;;;;;;;;;5.22;nan;100897.63;4155160;28;19938;-70
2024/03/09 02:09:20;;;;;;;;;;;;;;;5.22;nan;100891.44;4155344;28;20394;-70
2024/03/09 02:11:21;;;;;;;;;;;;;;;5.21;nan;100887.06;4137904;28;19936;-70
2024/03/09 02:13:26;;;;;;;;;;;;;;;5.21;nan;100892.41;4136944;28;19976;-70
2024/03/09 02:15:29;;;;;;;;;;;;;;;5.21;nan;100884.38;4154832;28;19928;-70
2024/03/09 02:17:33;;;;;;;;;;;;;;;5.20;nan;100883.53;4154050;28;19936;-70
2024/03/09 02:19:36;;;;;;;;;;;;;;;5.19;nan;100881.00;4139644;28;19925;-70
2024/03/09 02:21:38;;;;;;;;;;;;;;;5.18;nan;100876.63;4155407;28;19936;-70
2024/03/09 02:23:40;;;;;;;;;;;;;;;5.15;nan;100875.06;4154549;28;19932;-70
2024/03/09 02:25:44;;;;;;;;;;;;;;;5.15;nan;100868.88;4155915;28;20021;-71
2024/03/09 02:27:45;;;;;;;;;;;;;;;5.12;nan;100869.16;4155731;28;19940;-70
2024/03/09 02:29:47;;;;;;;;;;;;;;;5.13;nan;100870.84;4157010;28;19929;-71
2024/03/09 02:31:49;;;;;;;;;;;;;;;5.11;nan;100870.13;4155785;28;19935;-70
2024/03/09 02:33:53;;;;;;;;;;;;;;;5.11;nan;100870.13;4154641;28;20528;-70
2024/03/09 02:35:54;;;;;;;;;;;;;;;5.10;nan;100863.94;4155085;28;20387;-70
2024/03/09 02:37:56;;;;;;;;;;;;;;;5.07;nan;100869.56;4155248;28;19929;-70
2024/03/09 02:39:58;;;;;;;;;;;;;;;5.05;nan;100860.81;4154895;28;19926;-70
2024/03/09 02:42:01;;;;;;;;;;;;;;;5.05;nan;100861.66;4155822;28;19929;-71
2024/03/09 02:44:02;;;;;;;;;;;;;;;5.04;nan;100865.31;4154953;28;19930;-71
2024/03/09 02:46:05;;;;;;;;;;;;;;;5.04;nan;100862.63;4154387;28;19925;-71
2024/03/09 02:48:06;;;;;;;;;;;;;;;5.03;nan;100858.28;4152782;28;19930;-71
2024/03/09 02:50:09;;;;;;;;;;;;;;;5.03;nan;100862.78;4153811;28;20280;-71
2024/03/09 02:52:12;;;;;;;;;;;;;;;5.01;nan;100854.88;4155100;28;20501;-71
2024/03/09 02:54:14;;;;;;;;;;;;;;;5.00;nan;100853.22;4154499;28;19939;-71
2024/03/09 02:56:18;;;;;;;;;;;;;;;4.98;nan;100848.97;4155000;28;19951;-70
2024/03/09 02:58:22;;;;;;;;;;;;;;;4.96;nan;100854.47;4154667;28;19925;-71
2024/03/09 03:00:26;;;;;;;;;;;;;;;4.96;nan;100853.63;4154580;28;20407;-70
2024/03/09 03:04:44;;;;;;;;;;;;;;;4.94;nan;100856.44;4154583;28;19925;-70
2024/03/09 03:06:46;;;;;;;;;;;;;;;4.92;nan;100850.38;4155372;28;20291;-70
2024/03/09 03:08:49;;;;;;;;;;;;;;;4.91;nan;100848.69;4155374;28;19932;-70
2024/03/09 03:10:50;;;;;;;;;;;;;;;4.88;nan;100855.13;4135877;28;20011;-70
2024/03/09 03:12:52;;;;;;;;;;;;;;;4.87;nan;100837.41;4135408;28;19934;-70
2024/03/09 03:14:57;;;;;;;;;;;;;;;4.88;nan;100844.44;4155291;28;20300;-70
2024/03/09 03:17:00;;;;;;;;;;;;;;;4.88;nan;100848.94;4154679;28;19933;-70
2024/03/09 03:19:03;;;;;;;;;;;;;;;4.87;nan;100841.91;4154249;28;19940;-70
2024/03/09 03:21:06;;;;;;;;;;;;;;;4.86;nan;100853.59;4136204;28;19932;-70
2024/03/09 03:23:10;;;;;;;;;;;;;;;4.84;nan;100844.84;4155415;28;19932;-70
2024/03/09 03:25:11;;;;;;;;;;;;;;;4.83;nan;100843.16;4153458;28;19929;-70
2024/03/09 03:27:13;;;;;;;;;;;;;;;4.82;nan;100841.47;4155643;28;19929;-70
2024/03/09 03:29:17;;;;;;;;;;;;;;;4.80;nan;100841.59;4154576;28;19926;-70
2024/03/09 03:31:21;;;;;;;;;;;;;;;4.78;nan;100837.38;4154898;28;19936;-70
2024/03/09 03:33:23;;;;;;;;;;;;;;;4.79;nan;100833.72;4155238;28;19979;-70
2024/03/09 03:35:25;;;;;;;;;;;;;;;4.78;nan;100835.56;4154632;28;19929;-70
2024/03/09 03:37:27;;;;;;;;;;;;;;;4.77;nan;100824.97;4153930;28;20303;-70
2024/03/09 03:39:30;;;;;;;;;;;;;;;4.76;nan;100831.31;4152044;28;19925;-70
2024/03/09 03:41:32;;;;;;;;;;;;;;;4.75;nan;100827.81;4154631;28;19930;-70
2024/03/09 03:43:34;;;;;;;;;;;;;;;4.73;nan;100829.75;4153987;28;19932;-70
2024/03/09 03:45:37;;;;;;;;;;;;;;;4.70;nan;100830.00;4154476;28;19925;-70
2024/03/09 03:47:40;;;;;;;;;;;;;;;4.71;nan;100833.56;4155502;28;20250;-71
2024/03/09 03:49:42;;;;;;;;;;;;;;;4.68;nan;100822.13;4154215;28;19929;-70
2024/03/09 03:51:45;;;;;;;;;;;;;;;4.68;nan;100822.13;4153977;28;19925;-70
2024/03/09 03:53:46;;;;;;;;;;;;;;;4.69;nan;100825.66;4155518;28;20006;-71
2024/03/09 03:55:48;;;;;;;;;;;;;;;4.66;nan;100829.44;4155028;28;19926;-70
2024/03/09 03:57:50;;;;;;;;;;;;;;;4.64;nan;100823.41;4155302;28;19925;-70
2024/03/09 03:59:52;;;;;;;;;;;;;;;4.63;nan;100821.69;4153206;28;20391;-70
2024/03/09 04:01:54;;;;;;;;;;;;;;;4.62;nan;100820.00;4154290;28;19925;-71
2024/03/09 04:03:58;;;;;;;;;;;;;;;4.61;nan;100820.16;4154643;28;19933;-71
2024/03/09 04:06:00;;;;;;;;;;;;;;;4.60;nan;100815.78;4154618;28;20391;-70
2024/03/09 04:08:03;;;;;;;;;;;;;;;4.60;nan;100813.94;4155623;28;20382;-70
2024/03/09 04:10:13;;;;;;;;;;;;;;;4.56;nan;100809.88;4155288;28;19974;-71
2024/03/09 04:12:15;;;;;;;;;;;;;;;4.55;nan;100818.03;4153516;28;19926;-70
2024/03/09 04:14:18;;;;;;;;;;;;;;;4.54;nan;100810.97;4137195;28;19941;-70
2024/03/09 04:16:20;;;;;;;;;;;;;;;4.53;nan;100803.91;4156365;28;19929;-70
2024/03/09 04:18:22;;;;;;;;;;;;;;;4.50;nan;100805.06;4157930;28;19936;-70
2024/03/09 04:20:27;;;;;;;;;;;;;;;4.48;nan;100797.16;4140008;28;19932;-70
2024/03/09 04:22:29;;;;;;;;;;;;;;;4.46;nan;100793.75;4154864;28;19926;-70
2024/03/09 04:24:32;;;;;;;;;;;;;;;4.46;nan;100798.28;4157685;28;19929;-70
2024/03/09 04:26:34;;;;;;;;;;;;;;;4.44;nan;100790.38;4158109;28;19925;-70
2024/03/09 04:28:36;;;;;;;;;;;;;;;4.43;nan;100780.66;4158741;28;19925;-70
2024/03/09 04:30:38;;;;;;;;;;;;;;;4.42;nan;100779.00;4157825;28;20302;-70
2024/03/09 04:32:40;;;;;;;;;;;;;;;4.44;nan;100784.22;4157728;28;19929;-70
2024/03/09 04:34:43;;;;;;;;;;;;;;;4.41;nan;100782.63;4158370;28;19939;-70
2024/03/09 04:36:48;;;;;;;;;;;;;;;4.42;nan;100788.81;4158182;28;19925;-70
2024/03/09 04:38:50;;;;;;;;;;;;;;;4.41;nan;100769.28;4156808;28;19936;-70
2024/03/09 04:40:52;;;;;;;;;;;;;;;4.40;nan;100777.44;4157862;28;19999;-70
2024/03/09 04:42:54;;;;;;;;;;;;;;;4.40;nan;100766.72;4157149;28;19925;-70
2024/03/09 04:44:56;;;;;;;;;;;;;;;4.38;nan;100768.72;4158070;28;19933;-70
2024/03/09 04:46:58;;;;;;;;;;;;;;;4.36;nan;100766.16;4157757;28;19929;-70
2024/03/09 04:49:03;;;;;;;;;;;;;;;4.35;nan;100769.81;4157612;28;19945;-70
2024/03/09 04:51:06;;;;;;;;;;;;;;;4.34;nan;100757.41;4157537;28;20417;-70
2024/03/09 04:53:10;;;;;;;;;;;;;;;4.32;nan;100762.91;4140129;28;20453;-70
2024/03/09 04:55:11;;;;;;;;;;;;;;;4.32;nan;100759.38;4158116;28;19931;-70
2024/03/09 04:57:17;;;;;;;;;;;;;;;4.31;nan;100768.38;4157783;28;20391;-70
2024/03/09 04:59:19;;;;;;;;;;;;;;;4.30;nan;100767.53;4156882;28;19932;-70
2024/03/09 05:01:21;;;;;;;;;;;;;;;4.30;nan;100764.03;4157157;28;20409;-70
2024/03/09 05:03:23;;;;;;;;;;;;;;;4.29;nan;100759.66;4157689;28;19944;-70
2024/03/09 05:05:29;;;;;;;;;;;;;;;4.28;nan;100758.81;4158039;28;19932;-70
2024/03/09 05:07:31;;;;;;;;;;;;;;;4.26;nan;100755.44;4157294;28;19925;-70
2024/03/09 05:09:37;;;;;;;;;;;;;;;4.27;nan;100758.94;4156964;28;19951;-70
2024/03/09 05:11:39;;;;;;;;;;;;;;;4.26;nan;100757.25;4157108;28;20306;-70
2024/03/09 05:13:42;;;;;;;;;;;;;;;4.27;nan;100751.78;4157966;28;19936;-70
2024/03/09 05:15:44;;;;;;;;;;;;;;;4.26;nan;100751.91;4156932;28;19929;-70
2024/03/09 05:17:46;;;;;;;;;;;;;;;4.25;nan;100752.91;4157248;28;19925;-70
2024/03/09 05:19:48;;;;;;;;;;;;;;;4.26;nan;100749.22;4156303;28;19925;-70
2024/03/09 05:21:51;;;;;;;;;;;;;;;4.24;nan;100759.22;4157226;28;19929;-70
2024/03/09 05:23:53;;;;;;;;;;;;;;;4.22;nan;100747.84;4157220;28;19930;-70
2024/03/09 05:25:57;;;;;;;;;;;;;;;4.22;nan;100750.50;4156197;28;19952;-70
2024/03/09 05:27:59;;;;;;;;;;;;;;;4.21;nan;100754.16;4158370;28;19925;-70
2024/03/09 05:30:00;;;;;;;;;;;;;;;4.18;nan;100763.28;4157193;28;19933;-70
2024/03/09 05:32:03;;;;;;;;;;;;;;;4.20;nan;100755.97;4156131;28;19929;-70
2024/03/09 05:34:06;;;;;;;;;;;;;;;4.19;nan;100756.97;4156647;28;19936;-70
2024/03/09 05:36:08;;;;;;;;;;;;;;;4.18;nan;100757.94;4157430;28;19932;-70
2024/03/09 05:38:11;;;;;;;;;;;;;;;4.18;nan;100755.25;4156775;28;19997;-70
2024/03/09 05:40:13;;;;;;;;;;;;;;;4.20;nan;100749.78;4155397;28;20080;-70
2024/03/09 05:42:17;;;;;;;;;;;;;;;4.18;nan;100755.25;4154941;28;19925;-71
2024/03/09 05:44:19;;;;;;;;;;;;;;;4.19;nan;100756.13;4156627;28;19926;-70
2024/03/09 05:46:21;;;;;;;;;;;;;;;4.18;nan;100760.59;4157333;28;20458;-70
2024/03/09 05:48:24;;;;;;;;;;;;;;;4.16;nan;100762.56;4156008;28;19929;-70
2024/03/09 05:50:28;;;;;;;;;;;;;;;4.15;nan;100763.53;4155325;28;19929;-70
2024/03/09 05:52:31;;;;;;;;;;;;;;;4.14;nan;100756.53;4156455;28;20334;-70
2024/03/09 05:54:35;;;;;;;;;;;;;;;4.12;nan;100756.66;4156687;28;19933;-70
2024/03/09 05:56:37;;;;;;;;;;;;;;;4.11;nan;100741.59;4157066;28;19948;-70
2024/03/09 05:58:41;;;;;;;;;;;;;;;4.11;nan;100743.44;4156258;28;19930;-70
2024/03/09 06:00:44;;;;;;;;;;;;;;;4.10;nan;100744.41;4156155;28;19929;-70
2024/03/09 06:02:46;;;;;;;;;;;;;;;4.11;nan;100740.75;4157629;28;19929;-71
2024/03/09 06:04:49;;;;;;;;;;;;;;;4.11;nan;100743.44;4156748;28;19925;-70
2024/03/09 06:06:52;;;;;;;;;;;;;;;4.11;nan;100738.09;4138640;28;19929;-70
2024/03/09 06:08:54;;;;;;;;;;;;;;;4.10;nan;100733.69;4156119;28;19936;-70
2024/03/09 06:10:57;;;;;;;;;;;;;;;4.11;nan;100728.22;4138213;28;20004;-70
2024/03/09 06:12:59;;;;;;;;;;;;;;;4.11;nan;100738.09;4154211;28;19947;-70
2024/03/09 06:15:03;;;;;;;;;;;;;;;4.11;nan;100725.56;4155302;28;19925;-70
2024/03/09 06:17:06;;;;;;;;;;;;;;;4.12;nan;100737.94;4156291;28;19931;-70
2024/03/09 06:19:09;;;;;;;;;;;;;;;4.12;nan;100742.44;4153643;28;20437;-70
2024/03/09 06:21:11;;;;;;;;;;;;;;;4.13;nan;100736.94;4155248;28;20425;-70
2024/03/09 06:23:14;;;;;;;;;;;;;;;4.13;nan;100734.28;4155938;28;20040;-70
2024/03/09 06:25:22;;;;;;;;;;;;;;;4.13;nan;100731.59;4156508;28;19951;-70
2024/03/09 06:27:24;;;;;;;;;;;;;;;4.14;nan;100727.94;4154088;28;19989;-70
2024/03/09 06:29:26;;;;;;;;;;;;;;;4.15;nan;100731.47;4156837;28;19931;-70
2024/03/09 06:31:31;;;;;;;;;;;;;;;4.15;nan;100731.47;4156622;28;20419;-70
2024/03/09 06:33:33;;;;;;;;;;;;;;;4.15;nan;100732.34;4156057;28;19925;-70
2024/03/09 06:35:35;;;;;;;;;;;;;;;4.17;nan;100737.53;4156078;28;19925;-70
2024/03/09 06:37:38;;;;;;;;;;;;;;;4.18;nan;100739.22;4138839;28;20004;-70
2024/03/09 06:39:40;;;;;;;;;;;;;;;4.18;nan;100741.06;4154090;28;20272;-70
2024/03/09 06:41:47;;;;;;;;;;;;;;;4.20;nan;100736.41;4155658;28;19929;-70
2024/03/09 06:43:50;;;;;;;;;;;;;;;4.21;nan;100738.09;4154728;28;19936;-70
2024/03/09 06:45:56;;;;;;;;;;;;;;;4.22;nan;100737.13;4154801;28;19931;-70
2024/03/09 06:48:00;;;;;;;;;;;;;;;4.23;nan;100734.31;4155285;28;19926;-70
2024/03/09 06:50:04;;;;;;;;;;;;;;;4.26;nan;100733.19;4154645;28;20387;-70
2024/03/09 06:52:07;;;;;;;;;;;;;;;4.26;nan;100731.38;4153795;28;19929;-70
2024/03/09 06:54:08;;;;;;;;;;;;;;;4.30;nan;100735.47;4155047;28;19929;-70
2024/03/09 06:56:11;;;;;;;;;;;;;;;4.31;nan;100723.78;4155765;28;19930;-70
2024/03/09 06:58:13;;;;;;;;;;;;;;;4.33;nan;100732.50;4154884;28;19939;-70
2024/03/09 07:00:14;;;;;;;;;;;;;;;4.37;nan;100733.06;4155656;28;19943;-70
2024/03/09 07:02:17;;;;;;;;;;;;;;;4.40;nan;100722.09;4154033;28;19925;-70
2024/03/09 07:04:21;;;;;;;;;;;;;;;4.41;nan;100729.16;4154187;28;19925;-70
2024/03/09 07:06:23;;;;;;;;;;;;;;;4.43;nan;100723.66;4155019;28;19925;-70
2024/03/09 07:08:26;;;;;;;;;;;;;;;4.47;nan;100725.09;4155059;28;19929;-70
2024/03/09 07:10:28;;;;;;;;;;;;;;;4.49;nan;100717.78;4154443;28;19935;-70
2024/03/09 07:12:32;;;;;;;;;;;;;;;4.52;nan;100720.16;4153889;28;20314;-70
2024/03/09 07:14:35;;;;;;;;;;;;;;;4.54;nan;100710.16;4154986;28;20390;-70
2024/03/09 07:16:37;;;;;;;;;;;;;;;4.57;nan;100714.41;4153910;28;20307;-70
2024/03/09 07:18:39;;;;;;;;;;;;;;;4.60;nan;100711.47;4154215;28;20387;-70
2024/03/09 07:20:44;;;;;;;;;;;;;;;4.62;nan;100702.28;4154462;28;19935;-70
2024/03/09 07:22:48;;;;;;;;;;;;;;;4.65;nan;100699.34;4155894;28;19929;-71
2024/03/09 07:24:51;;;;;;;;;;;;;;;4.67;nan;100699.19;4154407;28;19948;-70
2024/03/09 07:26:53;;;;;;;;;;;;;;;4.72;nan;100698.78;4154762;28;19925;-71
2024/03/09 07:28:56;;;;;;;;;;;;;;;4.76;nan;100708.22;4154622;28;20409;-71
2024/03/09 07:30:58;;;;;;;;;;;;;;;4.78;nan;100716.94;4155183;28;19926;-70
2024/03/09 07:33:01;;;;;;;;;;;;;;;4.82;nan;100713.03;4153678;28;20256;-70
2024/03/09 07:35:14;;;;;;;;;;;;;;;4.85;nan;100718.94;4155173;28;19925;-70
2024/03/09 07:37:17;;;;;;;;;;;;;;;4.89;nan;100711.47;4154391;28;19929;-70
2024/03/09 07:39:19;;;;;;;;;;;;;;;4.93;nan;100712.88;4154002;28;20325;-71
2024/03/09 07:41:22;;;;;;;;;;;;;;;4.95;nan;100710.88;4153955;28;19925;-70
2024/03/09 07:43:24;;;;;;;;;;;;;;;4.98;nan;100702.59;4154783;28;19929;-71
2024/03/09 07:45:28;;;;;;;;;;;;;;;5.03;nan;100712.88;4153734;28;19933;-68
2024/03/09 07:47:29;;;;;;;;;;;;;;;5.05;nan;100706.41;4154753;28;19924;-69
2024/03/09 07:49:33;;;;;;;;;;;;;;;5.09;nan;100711.47;4154413;28;19929;-69
2024/03/09 07:51:38;;;;;;;;;;;;;;;5.14;nan;100709.19;4157992;28;19937;-69
2024/03/09 07:53:42;;;;;;;;;;;;;;;5.18;nan;100705.25;4140711;28;19948;-71
2024/03/09 07:55:45;;;;;;;;;;;;;;;5.21;nan;100697.78;4139509;28;20418;-70
2024/03/09 07:57:47;;;;;;;;;;;;;;;5.25;nan;100703.72;4155994;28;19932;-70
2024/03/09 07:59:49;;;;;;;;;;;;;;;5.31;nan;100700.44;4156243;28;19935;-70
2024/03/09 08:01:52;;;;;;;;;;;;;;;5.35;nan;100704.53;4155607;28;20360;-71
2024/03/09 08:03:55;;;;;;;;;;;;;;;5.40;nan;100696.88;4147950;28;19938;-71
2024/03/09 08:05:57;;;;;;;;;;;;;;;5.46;nan;100695.47;4158567;28;19925;-71
2024/03/09 08:08:02;;;;;;;;;;;;;;;5.51;nan;100698.56;4156575;28;19929;-71
2024/03/09 08:10:09;;;;;;;;;;;;;;;5.58;nan;100690.81;4140293;28;20005;-72
2024/03/09 08:12:22;;;;;;;;;;;;;;;5.64;nan;100682.16;4155988;28;19929;-71
2024/03/09 08:14:28;;;;;;;;;;;;;;;5.71;nan;100696.66;4140052;28;19929;-71
2024/03/09 08:16:34;;;;;;;;;;;;;;;5.77;nan;100687.22;4156466;28;19925;-70
2024/03/09 08:18:37;;;;;;;;;;;;;;;5.83;nan;100683.06;4128326;28;19930;-70
2024/03/09 08:20:42;;;;;;;;;;;;;;;5.88;nan;100680.81;4157966;28;19932;-72
2024/03/09 08:22:45;;;;;;;;;;;;;;;5.96;nan;100688.97;4147325;28;19938;-70
2024/03/09 08:24:51;;;;;;;;;;;;;;;6.02;nan;100682.16;4156759;28;19931;-71
2024/03/09 08:26:57;;;;;;;;;;;;;;;6.08;nan;100678.91;4139844;28;21283;-71
2024/03/09 08:28:59;;;;;;;;;;;;;;;6.15;nan;100671.13;4157752;28;20383;-72
2024/03/09 08:31:06;;;;;;;;;;;;;;;6.21;nan;100662.47;4157396;28;20396;-70
2024/03/09 08:33:09;;;;;;;;;;;;;;;6.28;nan;100667.06;4139472;28;19949;-72
2024/03/09 08:35:18;;;;;;;;;;;;;;;6.35;nan;100661.09;4156652;28;19936;-69
2024/03/09 08:37:21;;;;;;;;;;;;;;;6.43;nan;100663.88;4135914;28;19926;-70
2024/03/09 08:39:25;;;;;;;;;;;;;;;6.49;nan;100664.13;4136358;28;20330;-70
2024/03/09 08:41:32;;;;;;;;;;;;;;;6.58;nan;100645.41;4138067;28;19933;-70
2024/03/09 08:43:38;;;;;;;;;;;;;;;6.64;nan;100644.78;4136082;28;19941;-71
2024/03/09 08:45:42;;;;;;;;;;;;;;;6.73;nan;100643.88;4152769;28;19925;-69
2024/03/09 08:47:46;;;;;;;;;;;;;;;6.80;nan;100650.31;4151659;28;19976;-69
2024/03/09 08:49:48;;;;;;;;;;;;;;;6.88;nan;100640.63;4152319;28;20271;-69
2024/03/09 08:51:55;;;;;;;;;;;;;;;6.96;nan;100640.69;4152900;28;19925;-70
2024/03/09 08:54:00;;;;;;;;;;;;;;;7.04;nan;100630.03;4153914;28;19925;-70
2024/03/09 08:56:04;;;;;;;;;;;;;;;7.11;nan;100620.31;4153280;28;19936;-71
2024/03/09 08:58:06;;;;;;;;;;;;;;;7.19;nan;100620.41;4149563;28;20427;-72
2024/03/09 09:00:15;;;;;;;;;;;;;;;7.27;nan;100616.91;4138314;28;19934;-72
2024/03/09 09:02:22;;;;;;;;;;;;;;;7.36;nan;100618.63;4155959;28;19929;-67
2024/03/09 09:04:24;;;;;;;;;;;;;;;7.44;nan;100625.06;4155037;28;19931;-67
2024/03/09 09:06:26;;;;;;;;;;;;;;;7.52;nan;100627.78;4151698;28;19933;-73
2024/03/09 09:08:28;;;;;;;;;;;;;;;7.60;nan;100625.16;4152162;28;19926;-70
2024/03/09 09:10:30;;;;;;;;;;;;;;;7.69;nan;100609.91;4151543;28;19930;-70
2024/03/09 09:12:33;;;;;;;;;;;;;;;7.76;nan;100613.66;4152769;28;19929;-71
2024/03/09 09:14:35;;;;;;;;;;;;;;;7.84;nan;100602.91;4138942;28;20707;-72
2024/03/09 09:16:39;;;;;;;;;;;;;;;7.93;nan;100595.69;4157114;28;20309;-70
2024/03/09 09:18:41;;;;;;;;;;;;;;;8.00;nan;100596.75;4156793;28;19933;-71
2024/03/09 09:20:45;;;;;;;;;;;;;;;8.07;nan;100589.72;4157996;28;19955;-70
2024/03/09 09:22:47;;;;;;;;;;;;;;;8.16;nan;100589.72;4156057;28;19959;-71
2024/03/09 09:24:50;;;;;;;;;;;;;;;8.24;nan;100593.25;4141040;28;20272;-71
2024/03/09 09:26:53;;;;;;;;;;;;;;;8.31;nan;100585.38;4158125;28;20008;-71
2024/03/09 09:28:56;;;;;;;;;;;;;;;8.40;nan;100588.91;4141966;28;19931;-72
2024/03/09 09:30:58;;;;;;;;;;;;;;;8.48;nan;100583.59;4138745;28;19926;-71
2024/03/09 09:33:01;;;;;;;;;;;;;;;8.54;nan;100576.69;4155304;28;19929;-71
2024/03/09 09:35:03;;;;;;;;;;;;;;;8.61;nan;100575.00;4124090;28;19926;-70
2024/03/09 09:37:11;;;;;;;;;;;;;;;8.68;nan;100575.16;4158297;28;19925;-70
2024/03/09 09:39:20;;;;;;;;;;;;;;;8.74;nan;100569.09;4155782;28;20444;-69
2024/03/09 09:41:22;;;;;;;;;;;;;;;8.81;nan;100576.34;4155369;28;20326;-69
2024/03/09 09:43:24;;;;;;;;;;;;;;;8.86;nan;100565.06;4154396;28;19929;-69
2024/03/09 09:45:26;;;;;;;;;;;;;;;8.91;nan;100570.78;4154947;28;19940;-69
2024/03/09 09:47:29;;;;;;;;;;;;;;;8.98;nan;100568.22;4154889;28;19925;-69
2024/03/09 09:49:33;;;;;;;;;;;;;;;9.02;nan;100567.72;4154102;28;20337;-68
2024/03/09 09:51:35;;;;;;;;;;;;;;;9.07;nan;100560.97;4153315;28;20451;-70
2024/03/09 09:53:38;;;;;;;;;;;;;;;9.12;nan;100564.00;4154946;28;19925;-70
2024/03/09 09:55:40;;;;;;;;;;;;;;;9.16;nan;100557.25;4155063;28;19940;-71
2024/03/09 09:57:43;;;;;;;;;;;;;;;9.20;nan;100551.34;4154977;28;19933;-71
2024/03/09 09:59:46;;;;;;;;;;;;;;;9.25;nan;100553.53;4154751;28;19930;-71
2024/03/09 10:01:48;;;;;;;;;;;;;;;9.29;nan;100554.03;4155230;28;19928;-73
2024/03/09 10:03:52;;;;;;;;;;;;;;;9.33;nan;100558.88;4155301;28;20382;-71
2024/03/09 10:05:57;;;;;;;;;;;;;;;9.37;nan;100554.84;4155011;28;19933;-70
2024/03/09 10:07:59;;;;;;;;;;;;;;;9.41;nan;100554.50;4153833;28;20707;-72
2024/03/09 10:10:12;;;;;;;;;;;;;;;9.45;nan;100563.91;4156247;28;19939;-72
2024/03/09 10:12:21;;;;;;;;;;;;;;;9.49;nan;100551.78;4154579;28;19929;-72
2024/03/09 10:14:28;;;;;;;;;;;;;;;9.50;nan;100554.28;4151706;28;19929;-72
2024/03/09 10:16:31;;;;;;;;;;;;;;;9.54;nan;100542.16;4155900;28;19935;-71
2024/03/09 10:18:32;;;;;;;;;;;;;;;9.57;nan;100538.25;4155860;28;19933;-71
2024/03/09 10:20:35;;;;;;;;;;;;;;;9.59;nan;100532.69;4154317;28;20290;-71
2024/03/09 10:22:38;;;;;;;;;;;;;;;9.61;nan;100528.81;4155597;28;19926;-72
2024/03/09 10:24:51;;;;;;;;;;;;;;;9.63;nan;100525.94;4155461;28;19929;-71
2024/03/09 10:26:54;;;;;;;;;;;;;;;9.65;nan;100521.19;4156910;28;20307;-72
2024/03/09 10:28:58;;;;;;;;;;;;;;;9.66;nan;100517.50;4157057;28;19931;-71
2024/03/09 15:07:43;;;;;;;;;;;;;;;9.59;nan;100253.09;5056838;22;2059598;-88
2024/03/09 15:10:08;;;;;;;;;;;;;;;9.59;nan;100247.72;5137614;23;20011;-83
2024/03/09 15:12:30;;;;;;;;;;;;;;;9.58;nan;100259.53;5117637;23;20335;-84
2024/03/09 15:14:54;;;;;;;;;;;;;;;9.57;nan;100250.59;5117479;23;19983;-83
2024/03/09 15:17:21;;;;;;;;;;;;;;;9.59;nan;100252.28;5138437;23;19926;-82
2024/03/09 15:19:41;;;;;;;;;;;;;;;9.55;nan;100241.03;5116771;23;19928;-82
2024/03/09 15:22:04;;;;;;;;;;;;;;;9.57;nan;100244.38;5140402;23;20015;-81
2024/03/09 15:24:28;;;;;;;;;;;;;;;9.60;nan;100245.88;5141583;23;19930;-80
2024/03/09 15:26:53;;;;;;;;;;;;;;;9.60;nan;100241.31;5141295;23;19930;-80
2024/03/09 15:29:15;;;;;;;;;;;;;;;9.54;nan;100236.66;5119374;23;19934;-81
2024/03/09 15:31:36;;;;;;;;;;;;;;;9.59;nan;100245.00;5119454;23;19927;-81
2024/03/09 15:33:59;;;;;;;;;;;;;;;9.57;nan;100238.97;5118905;23;19931;-82
2024/03/09 15:36:23;;;;;;;;;;;;;;;9.58;nan;100240.66;5119788;23;19955;-82
2024/03/09 15:38:44;;;;;;;;;;;;;;;9.58;nan;100243.34;5141663;23;19931;-81
2024/03/09 15:41:06;;;;;;;;;;;;;;;9.58;nan;100243.34;5141658;23;19947;-78